createdAt,value
2022-08-18T00:12:05.974Z,20.30
2022-08-18T00:17:05.976Z,20.30
2022-08-18T00:22:05.973Z,16.20
2022-08-18T00:27:05.969Z,16.20
2022-08-18T00:42:05.981Z,15.00
2022-08-18T00:52:05.988Z,16.00
2022-08-18T01:02:05.991Z,16.00
2022-08-18T01:17:06.223Z,15.30
2022-08-18T01:22:05.987Z,15.60
2022-08-18T01:27:05.990Z,15.60
2022-08-18T01:42:06.128Z,15.50
2022-08-18T01:47:06.004Z,15.50
2022-08-18T01:52:06.008Z,16.30
2022-08-18T02:02:06.141Z,16.30
2022-08-18T02:07:06.032Z,13.90
2022-08-18T02:17:06.032Z,13.90
2022-08-18T02:22:06.023Z,11.10
2022-08-18T02:27:06.038Z,11.10
2022-08-18T02:42:06.042Z,10.20
2022-08-18T02:47:06.061Z,10.20
2022-08-18T02:57:06.041Z,9.60
2022-08-18T03:02:06.066Z,9.60
2022-08-18T03:17:06.045Z,8.90
2022-08-18T03:27:06.051Z,9.00
2022-08-18T03:42:06.048Z,8.10
2022-08-18T03:52:06.073Z,8.30
2022-08-18T04:02:06.058Z,8.30
2022-08-18T04:32:06.072Z,7.00
2022-08-18T04:47:06.089Z,6.60
2022-08-18T04:52:30.910Z,6.70
2022-08-18T05:12:06.085Z,6.80
2022-08-18T05:17:06.091Z,6.80
2022-08-18T05:22:06.094Z,6.60
2022-08-18T05:27:06.098Z,6.60
2022-08-18T05:32:06.100Z,6.60
2022-08-18T05:37:06.101Z,7.40
2022-08-18T05:42:06.106Z,7.40
2022-08-18T05:52:06.113Z,7.10
2022-08-18T06:02:06.112Z,7.10
2022-08-18T06:07:06.106Z,7.00
2022-08-18T06:12:06.119Z,7.00
2022-08-18T06:22:06.125Z,8.30
2022-08-18T06:32:06.125Z,8.30
2022-08-18T06:37:08.627Z,6.50
2022-08-18T06:47:06.131Z,6.50
2022-08-18T06:57:06.124Z,7.70
2022-08-18T07:02:06.127Z,7.70
2022-08-18T07:07:06.140Z,7.50
2022-08-18T07:12:06.147Z,7.50
2022-08-18T07:17:06.142Z,7.50
2022-08-18T07:22:06.168Z,5.80
2022-08-18T07:27:06.142Z,5.80
2022-08-18T07:37:06.147Z,5.00
2022-08-18T07:42:06.157Z,5.00
2022-08-18T07:52:06.165Z,4.60
2022-08-18T07:57:06.155Z,4.60
2022-08-18T08:02:06.337Z,4.60
2022-08-18T08:07:24.091Z,5.10
2022-08-18T08:12:06.159Z,5.10
2022-08-18T08:17:06.181Z,5.10
2022-08-18T08:22:06.168Z,5.30
2022-08-18T08:27:06.174Z,5.30
2022-08-18T08:32:06.172Z,5.30
2022-08-18T08:47:06.183Z,3.40
2022-08-18T08:57:06.194Z,4.90
2022-08-18T09:02:06.304Z,4.90
2022-08-18T09:07:06.193Z,3.90
2022-08-18T09:12:06.200Z,3.90
2022-08-18T09:17:06.190Z,3.90
2022-08-18T09:27:07.251Z,3.90
2022-08-18T09:32:06.189Z,3.90
2022-08-18T09:37:06.212Z,4.30
2022-08-18T09:42:06.208Z,4.30
2022-08-18T09:47:06.214Z,4.30
2022-08-18T09:52:06.244Z,5.10
2022-08-18T09:57:06.201Z,5.10
2022-08-18T10:02:06.218Z,5.10
2022-08-18T10:07:06.226Z,4.60
2022-08-18T10:12:06.220Z,4.60
2022-08-18T10:17:24.329Z,4.60
2022-08-18T10:22:06.236Z,4.60
2022-08-18T10:27:06.245Z,4.60
2022-08-18T10:32:06.233Z,4.60
2022-08-18T10:37:06.534Z,4.80
2022-08-18T10:42:06.243Z,4.80
2022-08-18T10:52:06.243Z,4.10
2022-08-18T10:57:08.751Z,4.10
2022-08-18T11:02:06.261Z,4.10
2022-08-18T11:07:07.598Z,4.40
2022-08-18T11:12:06.256Z,4.40
2022-08-18T11:17:06.903Z,4.40
2022-08-18T11:22:06.277Z,4.00
2022-08-18T11:27:09.733Z,4.00
2022-08-18T11:32:06.256Z,4.00
2022-08-18T11:37:08.912Z,4.80
2022-08-18T11:42:06.250Z,4.80
2022-08-18T11:47:06.289Z,4.80
2022-08-18T11:57:10.237Z,4.00
2022-08-18T12:02:06.291Z,4.00
2022-08-18T12:07:06.691Z,4.40
2022-08-18T12:12:06.287Z,4.40
2022-08-18T12:17:06.290Z,4.40
2022-08-18T12:22:11.747Z,4.20
2022-08-18T12:27:21.007Z,4.20
2022-08-18T12:32:08.611Z,4.20
2022-08-18T12:37:14.296Z,4.10
2022-08-18T12:42:06.354Z,4.10
2022-08-18T12:47:06.325Z,4.10
2022-08-18T12:52:06.299Z,3.60
2022-08-18T13:02:06.341Z,4.50
2022-08-18T13:07:06.302Z,4.50
2022-08-18T13:22:06.329Z,4.40
2022-08-18T13:32:06.475Z,3.70
2022-08-18T13:37:06.327Z,3.70
2022-08-18T13:42:26.565Z,3.70
2022-08-18T13:47:06.315Z,3.60
2022-08-18T13:52:12.216Z,3.60
2022-08-18T13:57:06.763Z,3.60
2022-08-18T14:02:08.476Z,4.20
2022-08-18T14:07:10.492Z,4.20
2022-08-18T14:12:06.348Z,4.20
2022-08-18T14:17:06.332Z,4.70
2022-08-18T14:22:06.330Z,4.70
2022-08-18T14:27:06.344Z,4.70
2022-08-18T14:32:06.539Z,4.40
2022-08-18T14:37:06.350Z,4.40
2022-08-18T14:42:06.388Z,4.40
2022-08-18T14:47:06.327Z,3.70
2022-08-18T14:52:10.606Z,3.70
2022-08-18T14:57:06.325Z,3.70
2022-08-18T15:02:06.338Z,4.20
2022-08-18T15:07:06.352Z,4.20
2022-08-18T15:12:06.335Z,4.20
2022-08-18T15:17:11.744Z,5.00
2022-08-18T15:22:06.332Z,5.00
2022-08-18T15:32:10.376Z,3.90
2022-08-18T15:37:09.994Z,3.90
2022-08-18T15:42:06.500Z,3.90
2022-08-18T15:47:09.403Z,3.90
2022-08-18T15:52:06.360Z,3.90
2022-08-18T15:57:06.354Z,3.90
2022-08-18T16:02:06.426Z,4.20
2022-08-18T16:07:06.368Z,4.20
2022-08-18T16:17:09.458Z,3.90
2022-08-18T16:27:06.386Z,3.90
2022-08-18T16:32:06.389Z,3.40
2022-08-18T16:37:06.430Z,3.40
2022-08-18T16:42:06.383Z,3.40
2022-08-18T16:47:06.430Z,3.40
2022-08-18T16:52:06.387Z,3.40
2022-08-18T16:57:06.401Z,3.40
2022-08-18T17:02:06.429Z,3.40
2022-08-18T17:07:06.395Z,3.40
2022-08-18T17:12:06.390Z,3.40
2022-08-18T17:17:06.400Z,3.30
2022-08-18T17:22:06.409Z,3.30
2022-08-18T17:27:16.610Z,3.30
2022-08-18T17:32:06.407Z,3.30
2022-08-18T17:47:06.422Z,3.50
2022-08-18T17:52:06.427Z,3.50
2022-08-18T17:57:06.436Z,3.50
2022-08-18T18:02:06.430Z,3.20
2022-08-18T18:07:06.445Z,3.20
2022-08-18T18:12:06.448Z,3.20
2022-08-18T18:17:06.451Z,3.40
2022-08-18T18:22:06.433Z,3.40
2022-08-18T18:27:06.444Z,3.40
2022-08-18T18:32:06.540Z,3.30
2022-08-18T18:37:06.440Z,3.30
2022-08-18T18:42:06.441Z,3.30
2022-08-18T18:47:06.452Z,3.80
2022-08-18T18:52:06.458Z,3.80
2022-08-18T19:02:13.594Z,3.10
2022-08-18T19:07:06.461Z,3.10
2022-08-18T19:12:06.457Z,3.10
2022-08-18T19:22:06.887Z,2.90
2022-08-18T19:27:06.466Z,2.90
2022-08-18T19:32:06.466Z,3.30
2022-08-18T19:42:06.463Z,3.30
2022-08-18T19:47:06.471Z,3.20
2022-08-18T19:57:06.479Z,3.20
2022-08-18T20:07:06.481Z,3.50
2022-08-18T20:12:06.475Z,3.50
2022-08-18T20:17:06.500Z,3.90
2022-08-18T20:27:06.555Z,3.90
2022-08-18T20:42:06.512Z,3.20
2022-08-18T20:47:06.502Z,3.10
2022-08-18T20:52:06.571Z,3.10
2022-08-18T21:02:06.505Z,3.40
2022-08-18T21:07:12.913Z,3.40
2022-08-18T21:12:06.514Z,3.40
2022-08-18T21:17:07.692Z,3.40
2022-08-18T21:27:06.509Z,3.40
2022-08-18T21:37:06.516Z,3.20
2022-08-18T21:47:06.521Z,3.20
2022-08-18T21:57:11.240Z,3.20
2022-08-18T22:02:06.548Z,3.70
2022-08-18T22:07:06.538Z,3.70
2022-08-18T22:22:06.539Z,3.30
2022-08-18T22:27:06.544Z,3.30
2022-08-18T22:32:06.545Z,3.10
2022-08-18T22:37:06.539Z,3.10
2022-08-18T22:47:06.542Z,3.30
2022-08-18T22:52:06.556Z,3.30
2022-08-18T22:57:06.648Z,3.30
2022-08-18T23:07:06.567Z,3.60
2022-08-18T23:12:06.556Z,3.60
2022-08-18T23:17:09.082Z,3.60
2022-08-18T23:22:06.568Z,3.60
2022-08-18T23:37:06.577Z,3.70
2022-08-18T23:47:06.594Z,3.90
2022-08-18T23:52:06.672Z,3.90
